Time;durP1;ratioP1;P1;durP2;ratioP2;P2;SDS_P1;SDS_P2;PMS_P1;PMS_P2;Temp;Humidity;BMP_temperature;BMP_pressure;BME280_temperature;BME280_humidity;BME280_pressure;Samples;Min_cycle;Max_cycle;Signal;HPM_P1;HPM_P2
2023/11/18 00:01:33;;;;;;;0.50;0.40;;;3.60;99.90;;;;;;5067788;28;20286;-83
2023/11/18 00:04:00;;;;;;;1.15;1.15;;;3.60;99.90;;;;;;5070073;28;20697;-83
2023/11/18 00:06:28;;;;;;;3.70;3.40;;;3.60;99.90;;;;;;5069035;28;20218;-82
2023/11/18 00:08:54;;;;;;;6.07;4.68;;;3.70;99.90;;;;;;5066726;28;20206;-82
2023/11/18 00:11:23;;;;;;;0.50;0.50;;;3.70;99.90;;;;;;5066535;28;20191;-82
2023/11/18 00:13:50;;;;;;;2.15;1.25;;;3.70;99.90;;;;;;5053864;28;20198;-82
2023/11/18 00:16:17;;;;;;;1.95;1.85;;;3.70;99.90;;;;;;5070115;28;20218;-82
2023/11/18 00:18:44;;;;;;;7.28;5.50;;;3.70;99.90;;;;;;5066104;28;20225;-82
2023/11/18 00:21:11;;;;;;;4.80;2.70;;;3.70;99.90;;;;;;5066423;28;20190;-80
2023/11/18 00:23:38;;;;;;;1.35;1.35;;;3.60;99.90;;;;;;5068335;28;20249;-81
2023/11/18 00:26:07;;;;;;;0.70;0.70;;;3.60;99.90;;;;;;5068715;28;20305;-81
2023/11/18 00:28:35;;;;;;;1.45;1.35;;;3.60;99.90;;;;;;5067993;28;20206;-80
2023/11/18 00:31:04;;;;;;;1.13;0.88;;;3.50;99.90;;;;;;5065891;28;20199;-80
2023/11/18 00:33:30;;;;;;;0.90;0.90;;;3.50;99.90;;;;;;5066712;28;20290;-81
2023/11/18 00:35:57;;;;;;;0.93;0.93;;;3.50;99.90;;;;;;5070279;28;20217;-81
2023/11/18 00:38:24;;;;;;;0.82;0.82;;;3.50;99.90;;;;;;5069710;28;20201;-81
2023/11/18 00:40:51;;;;;;;1.13;1.05;;;3.50;99.90;;;;;;5057014;28;20321;-82
2023/11/18 00:43:17;;;;;;;0.50;0.50;;;3.50;99.90;;;;;;5069245;28;20195;-80
2023/11/18 00:45:46;;;;;;;3.88;3.58;;;3.50;99.90;;;;;;5074530;28;20285;-80
2023/11/18 00:48:14;;;;;;;3.70;3.38;;;3.50;99.90;;;;;;5075412;28;20203;-79
2023/11/18 00:50:41;;;;;;;0.45;0.40;;;3.50;99.90;;;;;;5074164;28;20267;-80
2023/11/18 00:53:08;;;;;;;10.75;0.85;;;3.50;99.90;;;;;;5072321;28;20286;-81
2023/11/18 00:55:34;;;;;;;2.20;2.00;;;3.50;99.90;;;;;;5072749;28;20211;-80
2023/11/18 00:58:01;;;;;;;1.67;0.93;;;3.50;99.90;;;;;;5074913;28;20195;-80
2023/11/18 01:00:28;;;;;;;3.38;2.60;;;3.50;99.90;;;;;;5075034;28;20190;-80
2023/11/18 01:02:58;;;;;;;0.63;0.63;;;3.60;99.90;;;;;;5065868;28;20286;-81
2023/11/18 01:05:24;;;;;;;1.75;1.40;;;3.60;99.90;;;;;;5064648;28;20215;-81
2023/11/18 01:07:51;;;;;;;0.73;0.73;;;3.60;99.90;;;;;;5065057;28;20202;-81
2023/11/18 01:10:19;;;;;;;9.25;2.20;;;3.70;99.90;;;;;;5065080;28;20283;-81
2023/11/18 01:12:46;;;;;;;0.50;0.50;;;3.70;99.90;;;;;;5068298;28;20221;-81
2023/11/18 01:15:14;;;;;;;2.25;2.05;;;3.80;99.90;;;;;;5069767;28;20186;-80
2023/11/18 01:17:40;;;;;;;0.50;0.50;;;3.80;99.90;;;;;;5072593;28;20221;-79
2023/11/18 01:20:10;;;;;;;3.80;1.38;;;3.80;99.90;;;;;;5072572;28;20271;-80
2023/11/18 01:22:37;;;;;;;14.63;7.88;;;3.80;99.90;;;;;;5072265;28;20205;-80
2023/11/18 01:25:05;;;;;;;4.43;3.30;;;3.80;99.90;;;;;;5074947;28;20228;-79
2023/11/18 01:27:33;;;;;;;1.55;1.45;;;3.80;99.90;;;;;;5073867;28;20281;-80
2023/11/18 01:30:00;;;;;;;4.20;3.95;;;3.90;99.90;;;;;;5065455;28;20201;-80
2023/11/18 01:32:29;;;;;;;2.75;2.33;;;3.90;99.90;;;;;;5072035;28;20733;-79
2023/11/18 01:34:56;;;;;;;6.70;5.05;;;3.90;99.90;;;;;;5071525;28;20190;-80
2023/11/18 01:37:24;;;;;;;7.15;3.75;;;3.90;99.90;;;;;;5075272;28;20214;-80
2023/11/18 01:39:52;;;;;;;0.95;0.95;;;3.90;99.90;;;;;;5064276;28;20218;-80
2023/11/18 01:42:19;;;;;;;0.40;0.40;;;3.90;99.90;;;;;;5062817;28;20221;-80
2023/11/18 01:44:46;;;;;;;0.95;0.95;;;3.80;99.90;;;;;;5064802;28;20497;-80
2023/11/18 01:47:13;;;;;;;1.02;0.93;;;3.80;99.90;;;;;;5066416;28;20226;-80
2023/11/18 01:49:42;;;;;;;0.50;0.50;;;3.80;99.90;;;;;;5065083;28;20778;-80
2023/11/18 01:52:10;;;;;;;1.23;1.15;;;3.80;99.90;;;;;;5062455;28;20199;-81
2023/11/18 01:54:42;;;;;;;3.92;2.72;;;3.80;99.90;;;;;;5061875;28;20249;-81
2023/11/18 01:57:09;;;;;;;5.07;1.98;;;3.70;99.90;;;;;;5064463;28;20214;-80
2023/11/18 01:59:37;;;;;;;2.90;2.60;;;3.70;99.90;;;;;;5064499;28;20574;-82
2023/11/18 02:02:05;;;;;;;0.40;0.38;;;3.60;99.90;;;;;;5062031;28;20298;-80
2023/11/18 02:04:32;;;;;;;0.68;0.68;;;3.70;99.90;;;;;;5060805;28;20214;-81
2023/11/18 02:07:03;;;;;;;1.75;0.80;;;3.70;99.90;;;;;;5061020;28;20221;-82
2023/11/18 02:09:30;;;;;;;1.20;1.10;;;3.60;99.90;;;;;;5060792;28;20195;-81
2023/11/18 02:12:05;;;;;;;8.00;5.18;;;3.60;99.90;;;;;;5063458;28;20202;-81
2023/11/18 02:14:33;;;;;;;0.40;0.40;;;3.70;99.90;;;;;;5056269;28;20194;-81
2023/11/18 02:17:03;;;;;;;5.57;3.55;;;3.70;99.90;;;;;;5065045;28;20721;-79
2023/11/18 02:19:30;;;;;;;0.50;0.50;;;3.70;99.90;;;;;;5063951;28;20199;-81
2023/11/18 02:21:58;;;;;;;1.92;1.48;;;3.60;99.90;;;;;;5060913;28;20619;-81
2023/11/18 02:24:30;;;;;;;2.00;1.90;;;3.70;99.90;;;;;;5060927;28;20206;-80
2023/11/18 02:27:00;;;;;;;0.40;0.40;;;3.70;99.90;;;;;;5066425;28;20280;-81
2023/11/18 02:29:29;;;;;;;0.60;0.60;;;3.70;99.90;;;;;;5067600;28;20241;-81
2023/11/18 02:32:02;;;;;;;8.63;3.40;;;3.80;99.90;;;;;;5064720;28;20203;-82
2023/11/18 02:34:31;;;;;;;0.57;0.57;;;3.80;99.90;;;;;;5065973;28;20722;-81
2023/11/18 02:37:00;;;;;;;1.17;1.17;;;3.80;99.90;;;;;;5062334;28;20219;-81
2023/11/18 02:39:34;;;;;;;18.40;4.43;;;3.80;99.90;;;;;;5062167;28;20622;-81
2023/11/18 02:42:04;;;;;;;4.10;3.80;;;3.80;99.90;;;;;;5068057;28;20198;-81
2023/11/18 02:44:32;;;;;;;3.45;1.65;;;3.80;99.90;;;;;;5068947;28;20288;-81
2023/11/18 02:47:00;;;;;;;0.43;0.40;;;3.90;99.90;;;;;;5065632;28;20215;-80
2023/11/18 02:49:27;;;;;;;0.40;0.40;;;3.90;99.90;;;;;;5064815;28;20199;-81
2023/11/18 02:51:55;;;;;;;7.15;5.07;;;3.90;99.90;;;;;;5065779;28;20747;-80
2023/11/18 02:54:21;;;;;;;0.40;0.40;;;3.90;99.90;;;;;;5067490;28;20286;-80
2023/11/18 02:56:48;;;;;;;0.60;0.60;;;3.90;99.90;;;;;;5065721;28;20221;-81
2023/11/18 02:59:16;;;;;;;0.40;0.40;;;3.90;99.90;;;;;;5064178;28;20199;-80
2023/11/18 03:01:44;;;;;;;0.40;0.40;;;4.00;99.90;;;;;;5063755;28;20199;-81
2023/11/18 03:04:11;;;;;;;0.40;0.40;;;4.00;99.90;;;;;;5063545;28;20196;-80
2023/11/18 03:06:38;;;;;;;0.40;0.40;;;4.00;99.90;;;;;;5063036;28;20211;-81
2023/11/18 03:09:07;;;;;;;4.32;2.28;;;4.10;99.90;;;;;;5054704;28;20568;-81
2023/11/18 03:11:34;;;;;;;0.40;0.40;;;4.10;99.90;;;;;;5063393;28;20229;-80
2023/11/18 03:14:01;;;;;;;2.55;1.70;;;4.00;99.90;;;;;;5065778;28;20293;-81
2023/11/18 03:16:29;;;;;;;1.25;1.25;;;4.00;99.90;;;;;;5066743;28;20210;-80
2023/11/18 03:18:56;;;;;;;1.40;1.35;;;4.00;99.90;;;;;;5064100;28;20281;-81
2023/11/18 03:21:22;;;;;;;1.67;1.58;;;4.00;99.90;;;;;;5063022;28;20277;-81
2023/11/18 03:23:49;;;;;;;10.85;1.67;;;4.10;99.90;;;;;;5063830;28;20203;-80
2023/11/18 03:26:16;;;;;;;0.40;0.40;;;4.10;99.90;;;;;;5069590;28;20211;-80
2023/11/18 03:28:42;;;;;;;1.35;1.25;;;4.20;99.90;;;;;;5062384;28;20195;-80
2023/11/18 03:31:11;;;;;;;0.77;0.77;;;4.20;99.90;;;;;;5066206;28;20190;-81
2023/11/18 03:33:39;;;;;;;0.40;0.40;;;4.20;99.90;;;;;;5066159;28;20201;-81
2023/11/18 03:36:08;;;;;;;0.40;0.40;;;4.20;99.90;;;;;;5062302;28;20219;-81
2023/11/18 03:38:35;;;;;;;1.67;1.25;;;4.20;99.90;;;;;;5062159;28;20639;-81
2023/11/18 03:41:01;;;;;;;26.13;6.28;;;4.20;99.90;;;;;;5064762;28;20841;-80
2023/11/18 03:43:28;;;;;;;1.67;1.67;;;4.10;99.90;;;;;;5066056;28;20304;-80
2023/11/18 03:45:56;;;;;;;2.50;2.35;;;4.10;99.90;;;;;;5063940;28;20218;-81
2023/11/18 03:48:23;;;;;;;1.85;0.57;;;4.10;99.90;;;;;;5063141;28;20199;-80
2023/11/18 03:50:51;;;;;;;2.97;2.88;;;4.20;99.90;;;;;;5062550;28;20198;-80
2023/11/18 03:53:18;;;;;;;2.05;1.95;;;4.20;99.90;;;;;;5063147;28;20249;-79
2023/11/18 03:55:45;;;;;;;0.95;0.50;;;4.20;99.90;;;;;;5062701;28;20226;-80
2023/11/18 03:58:11;;;;;;;0.65;0.65;;;4.30;99.90;;;;;;5067201;28;20190;-80
2023/11/18 04:00:38;;;;;;;2.47;2.38;;;4.30;99.90;;;;;;5066362;28;20221;-80
2023/11/18 04:03:07;;;;;;;0.80;0.75;;;4.40;99.90;;;;;;5066680;28;20658;-81
2023/11/18 04:05:35;;;;;;;5.20;2.03;;;4.40;99.90;;;;;;5059658;28;20310;-81
2023/11/18 04:08:03;;;;;;;5.85;3.67;;;4.40;99.90;;;;;;5065606;28;20621;-81
2023/11/18 04:10:30;;;;;;;3.63;2.72;;;4.40;99.90;;;;;;5066544;28;20194;-81
2023/11/18 04:12:57;;;;;;;2.75;2.53;;;4.40;99.90;;;;;;5065128;28;20209;-81
2023/11/18 04:15:24;;;;;;;13.20;6.30;;;4.40;99.90;;;;;;5062851;28;20198;-80
2023/11/18 04:17:52;;;;;;;2.15;1.05;;;4.40;99.90;;;;;;5063554;28;20202;-81
2023/11/18 04:20:19;;;;;;;6.63;5.53;;;4.40;99.90;;;;;;5066386;28;20600;-81
2023/11/18 04:22:46;;;;;;;6.57;2.97;;;4.40;99.90;;;;;;5074615;28;20206;-81
2023/11/18 04:25:15;;;;;;;1.50;1.40;;;4.40;99.90;;;;;;5055359;28;20219;-80
2023/11/18 04:27:41;;;;;;;2.55;2.15;;;4.40;99.90;;;;;;5062658;28;20286;-81
2023/11/18 04:30:09;;;;;;;0.60;0.60;;;4.50;99.90;;;;;;5066247;28;20191;-81
2023/11/18 04:32:37;;;;;;;4.53;2.85;;;4.40;99.90;;;;;;5066025;28;20221;-81
2023/11/18 04:35:08;;;;;;;5.38;4.20;;;4.40;99.90;;;;;;5064650;28;20201;-81
2023/11/18 04:37:35;;;;;;;5.75;2.90;;;4.40;99.90;;;;;;5063618;28;20203;-82
2023/11/18 04:40:02;;;;;;;5.20;2.45;;;4.30;99.90;;;;;;5065619;28;20287;-81
2023/11/18 04:42:30;;;;;;;5.28;4.72;;;4.30;99.90;;;;;;5067925;28;20649;-81
2023/11/18 04:44:59;;;;;;;2.35;1.30;;;4.30;99.90;;;;;;5065227;28;20220;-81
2023/11/18 04:47:26;;;;;;;1.05;1.05;;;4.30;99.90;;;;;;5063842;28;20225;-81
2023/11/18 04:49:53;;;;;;;6.78;1.50;;;4.30;99.90;;;;;;5064082;28;20214;-81
2023/11/18 04:52:20;;;;;;;2.85;2.63;;;4.20;99.90;;;;;;5070594;28;20204;-81
2023/11/18 04:54:47;;;;;;;5.07;1.80;;;4.20;99.90;;;;;;5063021;28;20205;-81
2023/11/18 04:57:14;;;;;;;9.77;5.18;;;4.10;99.90;;;;;;5065178;28;20721;-81
2023/11/18 04:59:43;;;;;;;3.28;3.03;;;4.10;99.90;;;;;;5063755;28;20203;-81
2023/11/18 05:02:10;;;;;;;0.40;0.40;;;4.10;99.90;;;;;;5066715;28;20263;-81
2023/11/18 05:04:37;;;;;;;2.10;2.00;;;4.10;99.90;;;;;;5065720;28;20194;-81
2023/11/18 05:07:06;;;;;;;2.35;1.50;;;4.10;99.90;;;;;;5065486;28;20276;-81
2023/11/18 05:09:34;;;;;;;2.38;2.17;;;4.20;99.90;;;;;;5063209;28;20195;-80
2023/11/18 05:12:01;;;;;;;9.10;4.65;;;4.20;99.90;;;;;;5063950;28;20225;-81
2023/11/18 05:14:28;;;;;;;8.52;7.03;;;4.10;99.90;;;;;;5067634;28;20205;-81
2023/11/18 05:16:56;;;;;;;0.43;0.40;;;4.10;99.90;;;;;;5066810;28;20230;-81
2023/11/18 05:19:23;;;;;;;1.25;1.25;;;4.10;99.90;;;;;;5062829;28;20188;-81
2023/11/18 05:21:50;;;;;;;3.30;1.75;;;4.20;99.90;;;;;;5063983;28;20195;-81
2023/11/18 05:24:17;;;;;;;7.82;3.45;;;4.20;99.90;;;;;;5054604;28;20647;-81
2023/11/18 05:26:44;;;;;;;1.48;1.38;;;4.20;99.90;;;;;;5062479;28;20287;-81
2023/11/18 05:29:16;;;;;;;3.00;1.88;;;4.20;99.90;;;;;;5065479;28;20632;-81
2023/11/18 05:31:43;;;;;;;8.10;6.60;;;4.20;99.90;;;;;;5066780;28;20291;-81
2023/11/18 05:34:12;;;;;;;11.68;6.18;;;4.20;99.90;;;;;;5063883;28;20202;-81
2023/11/18 05:36:40;;;;;;;2.08;1.98;;;4.20;99.90;;;;;;5062516;28;20211;-80
2023/11/18 05:39:07;;;;;;;4.53;3.00;;;4.30;99.90;;;;;;5065145;28;20237;-81
2023/11/18 05:41:35;;;;;;;13.98;2.67;;;4.30;99.90;;;;;;5066585;28;20736;-82
2023/11/18 05:44:01;;;;;;;1.05;1.05;;;4.30;99.90;;;;;;5065022;28;20202;-81
2023/11/18 05:46:29;;;;;;;0.73;0.73;;;4.40;99.90;;;;;;5062437;28;20211;-81
2023/11/18 05:48:57;;;;;;;2.00;1.33;;;4.40;99.90;;;;;;5062021;28;20202;-81
2023/11/18 05:51:25;;;;;;;5.50;5.28;;;4.50;99.90;;;;;;5065673;28;20228;-82
2023/11/18 05:53:52;;;;;;;6.18;2.83;;;4.50;99.90;;;;;;5067327;28;20618;-81
2023/11/18 05:56:22;;;;;;;6.57;4.00;;;4.60;99.90;;;;;;5058400;28;20217;-81
2023/11/18 05:58:49;;;;;;;4.90;3.70;;;4.60;99.90;;;;;;5066338;28;20213;-82
2023/11/18 06:01:16;;;;;;;5.47;3.63;;;4.60;99.90;;;;;;5060839;28;20195;-80
2023/11/18 06:03:43;;;;;;;0.55;0.55;;;4.70;99.90;;;;;;5067716;28;20241;-81
2023/11/18 06:06:12;;;;;;;1.02;1.02;;;4.70;99.90;;;;;;5063209;28;20662;-81
2023/11/18 06:08:41;;;;;;;1.13;1.02;;;4.70;99.90;;;;;;5061657;28;20195;-81
2023/11/18 06:11:13;;;;;;;2.30;2.15;;;4.70;99.90;;;;;;5063110;28;20573;-81
2023/11/18 06:13:44;;;;;;;0.50;0.40;;;4.70;99.90;;;;;;5065339;28;20221;-81
2023/11/18 06:16:14;;;;;;;0.65;0.65;;;4.70;99.90;;;;;;5065501;28;20224;-80
2023/11/18 06:18:44;;;;;;;15.18;8.90;;;4.70;99.90;;;;;;5065489;28;20191;-81
2023/11/18 06:21:12;;;;;;;1.35;1.25;;;4.70;99.90;;;;;;5067052;28;20207;-80
2023/11/18 06:23:40;;;;;;;1.60;1.50;;;4.70;99.90;;;;;;5068604;28;20198;-81
2023/11/18 06:26:09;;;;;;;1.08;0.98;;;4.80;99.90;;;;;;5067393;28;20308;-81
2023/11/18 06:28:37;;;;;;;17.17;9.10;;;4.80;99.90;;;;;;5065245;28;20249;-81
2023/11/18 06:31:04;;;;;;;2.72;2.63;;;4.80;99.90;;;;;;5066158;28;20201;-81
2023/11/18 06:33:32;;;;;;;8.57;3.72;;;4.80;99.90;;;;;;5068468;28;20262;-81
2023/11/18 06:36:00;;;;;;;0.60;0.60;;;4.80;99.90;;;;;;5069173;28;20219;-81
2023/11/18 06:38:30;;;;;;;5.43;1.67;;;4.90;99.90;;;;;;5065678;28;20191;-81
2023/11/18 06:40:59;;;;;;;3.45;3.15;;;4.90;99.90;;;;;;5066132;28;20198;-81
2023/11/18 06:43:35;;;;;;;2.97;0.82;;;4.90;99.90;;;;;;5058340;28;20187;-82
2023/11/18 06:46:02;;;;;;;1.73;1.63;;;4.90;99.90;;;;;;5070399;28;20222;-81
2023/11/18 06:48:29;;;;;;;2.15;2.00;;;5.00;99.90;;;;;;5074815;28;20202;-82
2023/11/18 06:50:56;;;;;;;10.13;4.10;;;5.00;99.90;;;;;;5075375;28;20208;-80
2023/11/18 06:53:22;;;;;;;2.65;1.98;;;5.00;99.90;;;;;;5072030;28;20287;-80
2023/11/18 06:55:49;;;;;;;0.50;0.50;;;5.00;99.90;;;;;;5071098;28;20215;-81
2023/11/18 06:58:18;;;;;;;0.50;0.40;;;5.10;99.90;;;;;;5073322;28;20199;-81
2023/11/18 07:00:45;;;;;;;0.75;0.65;;;5.10;99.90;;;;;;5077698;28;20202;-80
2023/11/18 07:03:13;;;;;;;0.93;0.93;;;5.10;99.90;;;;;;5072125;28;20209;-81
2023/11/18 07:05:39;;;;;;;6.15;2.15;;;5.10;99.90;;;;;;5072830;28;20209;-80
2023/11/18 07:08:08;;;;;;;2.53;1.38;;;5.10;99.90;;;;;;5071806;28;20205;-80
2023/11/18 07:10:38;;;;;;;9.15;5.57;;;5.10;99.90;;;;;;5073909;28;20198;-82
2023/11/18 07:13:04;;;;;;;2.13;1.73;;;5.10;99.90;;;;;;5072939;28;20221;-81
2023/11/18 07:15:32;;;;;;;0.50;0.40;;;5.10;99.90;;;;;;5071249;28;20219;-81
2023/11/18 07:17:59;;;;;;;5.88;3.88;;;5.10;99.90;;;;;;5070789;28;20203;-81
2023/11/18 07:20:26;;;;;;;0.50;0.40;;;5.20;99.90;;;;;;5074145;28;20197;-82
2023/11/18 07:22:54;;;;;;;2.35;2.15;;;5.20;99.90;;;;;;5074018;28;20208;-81
2023/11/18 07:25:21;;;;;;;1.80;1.70;;;5.30;99.90;;;;;;5070163;28;20198;-80
2023/11/18 07:27:48;;;;;;;0.55;0.55;;;5.30;99.90;;;;;;5068880;28;20214;-81
2023/11/18 07:30:15;;;;;;;0.47;0.40;;;5.30;99.90;;;;;;5073584;28;20285;-81
2023/11/18 07:32:43;;;;;;;10.70;5.78;;;5.30;99.90;;;;;;5071056;28;20223;-81
2023/11/18 07:35:11;;;;;;;3.28;2.17;;;5.30;99.90;;;;;;5071067;28;20199;-81
2023/11/18 07:37:38;;;;;;;2.03;1.92;;;5.30;99.90;;;;;;5071798;28;20191;-80
2023/11/18 07:40:06;;;;;;;8.30;4.43;;;5.30;99.90;;;;;;5072095;28;20200;-81
2023/11/18 07:42:35;;;;;;;5.80;3.22;;;5.40;99.90;;;;;;5074789;28;20198;-81
2023/11/18 07:45:03;;;;;;;0.90;0.70;;;5.40;99.90;;;;;;5074868;28;20210;-82
2023/11/18 07:47:31;;;;;;;1.65;1.55;;;5.40;99.90;;;;;;5081720;22;20575;-80
2023/11/18 07:49:59;;;;;;;10.82;6.40;;;5.50;99.90;;;;;;5044514;28;20195;-78
2023/11/18 07:52:27;;;;;;;0.85;0.85;;;5.50;99.90;;;;;;5071193;28;20199;-81
2023/11/18 07:54:54;;;;;;;0.60;0.60;;;5.50;99.90;;;;;;5081977;28;20224;-82
2023/11/18 07:57:23;;;;;;;0.50;0.40;;;5.50;99.90;;;;;;5066149;28;20219;-82
2023/11/18 07:59:50;;;;;;;2.63;2.38;;;5.60;99.90;;;;;;5062427;28;20202;-81
2023/11/18 08:02:18;;;;;;;1.65;1.55;;;5.60;99.90;;;;;;5061496;28;20584;-78
2023/11/18 08:04:45;;;;;;;2.40;2.30;;;5.60;99.90;;;;;;5060329;28;20205;-81
2023/11/18 08:07:13;;;;;;;1.23;1.13;;;5.60;99.90;;;;;;5060903;28;20682;-80
2023/11/18 08:09:42;;;;;;;0.65;0.63;;;5.60;99.90;;;;;;5060896;28;20214;-81
2023/11/18 08:12:09;;;;;;;0.50;0.40;;;5.60;99.90;;;;;;5061314;28;20195;-79
2023/11/18 08:14:36;;;;;;;6.28;4.00;;;5.70;99.90;;;;;;5061685;28;20242;-79
2023/11/18 08:17:04;;;;;;;1.50;1.40;;;5.80;99.90;;;;;;5060812;28;20199;-81
2023/11/18 08:19:31;;;;;;;1.48;1.40;;;5.80;99.90;;;;;;5061637;28;20195;-81
2023/11/18 08:21:59;;;;;;;4.13;1.40;;;5.90;99.90;;;;;;5061924;28;20286;-77
2023/11/18 08:24:26;;;;;;;0.50;0.40;;;5.90;99.90;;;;;;5060037;28;20221;-81
2023/11/18 08:26:54;;;;;;;0.93;0.55;;;5.90;99.90;;;;;;5060750;28;20223;-78
2023/11/18 08:29:21;;;;;;;6.65;2.90;;;5.90;99.90;;;;;;5061844;28;20202;-80
2023/11/18 08:31:47;;;;;;;1.15;1.05;;;6.00;99.90;;;;;;5061393;28;20258;-81
2023/11/18 08:34:14;;;;;;;0.50;0.40;;;6.00;99.90;;;;;;5060980;28;20209;-81
2023/11/18 08:36:43;;;;;;;1.25;1.15;;;6.00;99.90;;;;;;5060549;28;20202;-80
2023/11/18 08:39:11;;;;;;;3.17;2.88;;;6.00;99.90;;;;;;5059667;28;20214;-79
2023/11/18 08:41:39;;;;;;;5.72;2.80;;;6.00;99.90;;;;;;5060955;28;20191;-81
2023/11/18 08:44:06;;;;;;;0.50;0.40;;;6.00;99.90;;;;;;5060861;28;20198;-80
2023/11/18 08:46:33;;;;;;;0.60;0.55;;;6.10;99.90;;;;;;5060154;28;20214;-81
2023/11/18 08:49:06;;;;;;;2.65;2.45;;;6.10;99.90;;;;;;5059777;28;20317;-81
2023/11/18 08:51:33;;;;;;;0.60;0.60;;;6.10;99.90;;;;;;5060509;28;20201;-80
2023/11/18 08:54:01;;;;;;;0.50;0.40;;;6.10;99.90;;;;;;5061037;28;20209;-78
2023/11/18 08:56:34;;;;;;;0.50;0.50;;;6.10;99.90;;;;;;5059597;28;20202;-81
2023/11/18 08:59:02;;;;;;;4.30;2.13;;;6.20;99.90;;;;;;5060661;28;20644;-82
2023/11/18 09:01:31;;;;;;;0.50;0.40;;;6.20;99.90;;;;;;5059717;28;20709;-80
2023/11/18 09:04:01;;;;;;;0.50;0.50;;;6.20;99.90;;;;;;5059522;28;20199;-81
2023/11/18 09:06:28;;;;;;;0.68;0.68;;;6.20;99.90;;;;;;5060249;28;20199;-81
2023/11/18 09:08:57;;;;;;;0.50;0.40;;;6.20;99.90;;;;;;5060067;28;20229;-78
2023/11/18 09:11:27;;;;;;;0.73;0.70;;;6.30;99.90;;;;;;5060119;28;20581;-81
2023/11/18 09:13:57;;;;;;;0.98;0.98;;;6.30;99.90;;;;;;5059997;28;20215;-81
2023/11/18 09:16:29;;;;;;;1.17;1.17;;;6.30;99.90;;;;;;5060348;28;20344;-81
2023/11/18 09:18:58;;;;;;;4.70;2.03;;;6.30;99.90;;;;;;5059553;28;20261;-79
2023/11/18 09:21:29;;;;;;;0.60;0.60;;;6.30;99.90;;;;;;5060058;28;20198;-82
2023/11/18 09:23:56;;;;;;;1.83;1.30;;;6.30;99.90;;;;;;5060474;28;20205;-81
2023/11/18 09:26:25;;;;;;;3.40;0.98;;;6.40;99.90;;;;;;5060995;28;20205;-80
2023/11/18 09:28:52;;;;;;;6.05;3.40;;;6.40;99.90;;;;;;5060357;28;20219;-81
2023/11/18 09:31:21;;;;;;;0.50;0.40;;;6.40;99.90;;;;;;5059549;28;20199;-80
2023/11/18 09:33:52;;;;;;;1.67;1.15;;;6.50;99.90;;;;;;5058084;28;20202;-80
2023/11/18 09:36:21;;;;;;;3.70;1.48;;;6.50;99.90;;;;;;5056687;28;20199;-80
2023/11/18 09:38:49;;;;;;;1.30;1.20;;;6.50;99.90;;;;;;5057669;28;20700;-80
2023/11/18 09:41:16;;;;;;;0.50;0.50;;;6.60;99.90;;;;;;5057641;28;20294;-78
2023/11/18 09:43:45;;;;;;;1.30;1.25;;;6.60;99.90;;;;;;5058033;28;20199;-80
2023/11/18 09:46:13;;;;;;;0.50;0.40;;;6.60;99.90;;;;;;5057782;28;20209;-80
2023/11/18 09:48:46;;;;;;;0.50;0.40;;;6.70;99.90;;;;;;5057354;28;20237;-81
2023/11/18 09:51:17;;;;;;;1.00;0.75;;;6.70;99.90;;;;;;5057063;28;20261;-80
2023/11/18 09:53:46;;;;;;;0.60;0.60;;;6.70;99.90;;;;;;5058343;28;20203;-80
2023/11/18 09:56:26;;;;;;;1.00;0.90;;;6.80;99.90;;;;;;5057631;28;20227;-80
2023/11/18 09:59:00;;;;;;;2.58;1.85;;;6.80;99.90;;;;;;5044287;28;20215;-80
2023/11/18 10:01:34;;;;;;;0.60;0.60;;;6.90;99.90;;;;;;5057127;28;20199;-80
2023/11/18 10:04:06;;;;;;;0.50;0.50;;;6.90;99.90;;;;;;5057653;28;20206;-76
2023/11/18 10:06:36;;;;;;;1.10;1.00;;;6.90;99.90;;;;;;5057415;28;20374;-80
2023/11/18 10:09:15;;;;;;;0.80;0.80;;;6.90;99.90;;;;;;5058404;28;20229;-80
2023/11/18 10:11:42;;;;;;;14.77;3.33;;;7.00;99.90;;;;;;5057531;28;20214;-80
2023/11/18 10:14:10;;;;;;;2.97;1.65;;;7.00;99.90;;;;;;5057594;28;20210;-81
2023/11/18 10:16:38;;;;;;;0.50;0.40;;;7.10;99.90;;;;;;5057389;28;20199;-79
2023/11/18 10:19:08;;;;;;;0.90;0.70;;;7.10;99.90;;;;;;5057362;28;20222;-80
2023/11/18 10:21:40;;;;;;;1.25;1.17;;;7.10;99.90;;;;;;5057432;28;20269;-80
2023/11/18 10:24:14;;;;;;;0.77;0.77;;;7.10;99.90;;;;;;5057561;28;20199;-79
2023/11/18 10:26:41;;;;;;;5.15;4.53;;;7.10;99.90;;;;;;5057657;28;20199;-80
2023/11/18 10:29:12;;;;;;;2.13;2.03;;;7.20;99.90;;;;;;5057515;28;20219;-80
2023/11/18 10:31:44;;;;;;;4.05;2.13;;;7.20;99.90;;;;;;5058614;28;20215;-80
2023/11/18 10:34:15;;;;;;;1.30;1.20;;;7.20;99.90;;;;;;5058632;28;20199;-80
2023/11/18 10:37:02;;;;;;;4.13;2.40;;;7.30;99.90;;;;;;5058479;28;20206;-81
2023/11/18 10:39:32;;;;;;;1.80;1.23;;;7.40;99.90;;;;;;5057423;28;20195;-80
2023/11/18 10:42:01;;;;;;;0.60;0.60;;;7.40;99.90;;;;;;5057015;28;20199;-76
2023/11/18 10:44:29;;;;;;;0.50;0.40;;;7.30;99.90;;;;;;5057081;28;20650;-79
2023/11/18 10:46:58;;;;;;;4.10;2.08;;;7.40;99.90;;;;;;5058318;28;20231;-78
2023/11/18 10:49:25;;;;;;;1.75;1.65;;;7.40;99.90;;;;;;5058340;28;20187;-80
2023/11/18 10:51:54;;;;;;;2.35;2.25;;;7.40;99.90;;;;;;5058529;28;20562;-80
2023/11/18 10:54:22;;;;;;;1.55;0.52;;;7.40;99.90;;;;;;5058241;28;20673;-80
2023/11/18 10:56:49;;;;;;;0.50;0.40;;;7.40;99.90;;;;;;5057933;28;20195;-80
2023/11/18 10:59:18;;;;;;;0.95;0.95;;;7.40;99.90;;;;;;5058458;28;20213;-79
2023/11/18 11:01:48;;;;;;;5.10;2.70;;;7.50;99.90;;;;;;5058507;28;20192;-80
2023/11/18 11:04:20;;;;;;;0.88;0.60;;;7.40;99.90;;;;;;5062709;28;20214;-79
2023/11/18 11:06:53;;;;;;;1.50;1.30;;;7.40;99.90;;;;;;5061824;28;20195;-80
2023/11/18 11:09:24;;;;;;;0.50;0.40;;;7.50;99.90;;;;;;5062247;28;20637;-80
2023/11/18 11:11:55;;;;;;;6.20;2.72;;;7.40;99.90;;;;;;5045583;28;20191;-80
2023/11/18 11:14:25;;;;;;;1.75;1.42;;;7.40;99.90;;;;;;5061619;28;20528;-81
2023/11/18 11:16:55;;;;;;;3.92;2.35;;;7.40;99.90;;;;;;5045992;28;20197;-79
2023/11/18 11:19:27;;;;;;;0.50;0.40;;;7.40;99.90;;;;;;5061693;28;20188;-81
2023/11/18 11:22:02;;;;;;;1.02;0.98;;;7.50;99.90;;;;;;5046706;28;20187;-77
2023/11/18 11:24:43;;;;;;;2.17;1.27;;;7.50;99.90;;;;;;5062530;28;20542;-80
2023/11/18 11:27:28;;;;;;;0.88;0.88;;;7.60;99.90;;;;;;5060985;28;20253;-81
2023/11/18 11:30:00;;;;;;;1.73;1.35;;;7.60;99.90;;;;;;5062727;28;20197;-79
2023/11/18 11:32:38;;;;;;;1.35;1.25;;;7.60;99.90;;;;;;5061912;28;20191;-80
2023/11/18 11:35:16;;;;;;;1.40;1.30;;;7.60;99.90;;;;;;5060900;28;20204;-79
2023/11/18 11:37:46;;;;;;;4.05;3.00;;;7.60;99.90;;;;;;5060804;28;20219;-78
2023/11/18 11:40:21;;;;;;;0.80;0.80;;;7.50;99.90;;;;;;5060225;28;20201;-80
2023/11/18 11:42:54;;;;;;;0.98;0.98;;;7.40;99.90;;;;;;5060001;28;20221;-79
2023/11/18 11:45:28;;;;;;;2.65;1.67;;;7.40;99.90;;;;;;5059397;28;20198;-80
2023/11/18 11:48:12;;;;;;;0.93;0.60;;;7.30;99.90;;;;;;5058166;28;20223;-77
2023/11/18 11:50:55;;;;;;;0.50;0.40;;;7.30;99.90;;;;;;5058688;28;20191;-80
2023/11/18 11:53:25;;;;;;;9.77;0.90;;;7.40;99.90;;;;;;5059591;28;20202;-80
2023/11/18 11:56:04;;;;;;;1.50;1.40;;;7.40;99.90;;;;;;5051177;28;20192;-80
2023/11/18 11:58:32;;;;;;;0.50;0.50;;;7.40;99.90;;;;;;5059394;28;20203;-79
2023/11/18 12:01:02;;;;;;;0.50;0.40;;;7.30;99.90;;;;;;5059366;28;20194;-76
2023/11/18 12:03:36;;;;;;;1.30;1.05;;;7.30;99.90;;;;;;5058726;28;20218;-79
2023/11/18 12:06:07;;;;;;;0.60;0.60;;;7.40;99.90;;;;;;5058673;28;20191;-80
2023/11/18 12:08:36;;;;;;;0.47;0.40;;;7.30;99.90;;;;;;5058604;28;20243;-79
2023/11/18 12:11:09;;;;;;;1.98;1.88;;;7.40;99.90;;;;;;5059475;28;20213;-78
2023/11/18 12:13:40;;;;;;;2.95;2.28;;;7.40;99.90;;;;;;5057877;28;20195;-79
2023/11/18 12:16:10;;;;;;;2.15;1.15;;;7.30;99.90;;;;;;5057538;28;20202;-77
2023/11/18 12:18:37;;;;;;;3.63;2.00;;;7.30;99.90;;;;;;5057421;28;20233;-78
2023/11/18 12:21:04;;;;;;;1.27;1.17;;;7.30;99.90;;;;;;5056957;28;20246;-79
2023/11/18 12:23:34;;;;;;;2.20;1.30;;;7.30;99.90;;;;;;5057259;28;20191;-79
2023/11/18 12:26:02;;;;;;;1.02;0.70;;;7.20;99.90;;;;;;5057278;28;20221;-80
2023/11/18 12:28:34;;;;;;;1.27;1.23;;;7.20;99.90;;;;;;5056375;28;20252;-79
2023/11/18 12:31:05;;;;;;;2.17;1.60;;;7.20;99.90;;;;;;5042956;28;20195;-79
2023/11/18 12:34:05;;;;;;;7.22;3.17;;;7.20;99.90;;;;;;5049793;28;20191;-79
2023/11/18 12:37:18;;;;;;;2.13;2.03;;;7.20;99.90;;;;;;5056593;28;20187;-80
2023/11/18 12:40:31;;;;;;;0.68;0.50;;;7.20;99.90;;;;;;5049488;28;20198;-79
2023/11/18 12:43:05;;;;;;;0.50;0.40;;;7.10;99.90;;;;;;5051188;28;20198;-81
2023/11/18 12:46:15;;;;;;;3.40;2.65;;;7.10;99.90;;;;;;5057631;28;20191;-80
2023/11/18 12:48:46;;;;;;;2.20;2.05;;;7.10;99.90;;;;;;5040718;28;20226;-80
2023/11/18 12:51:19;;;;;;;0.50;0.43;;;7.10;99.90;;;;;;5056074;28;20241;-80
2023/11/18 12:53:48;;;;;;;0.50;0.47;;;7.00;99.90;;;;;;5056062;28;20199;-80
2023/11/18 12:56:16;;;;;;;0.70;0.70;;;7.10;99.90;;;;;;5055639;28;20214;-80
2023/11/18 12:58:43;;;;;;;0.60;0.55;;;7.10;99.90;;;;;;5056941;28;20256;-81
2023/11/18 13:01:14;;;;;;;0.50;0.50;;;7.10;99.90;;;;;;5056492;28;20251;-80
2023/11/18 13:03:41;;;;;;;8.45;5.10;;;7.10;99.90;;;;;;5056237;28;20234;-80
2023/11/18 13:06:11;;;;;;;1.92;1.52;;;7.00;99.90;;;;;;5055627;28;20202;-80
2023/11/18 13:08:38;;;;;;;10.18;1.30;;;7.00;99.90;;;;;;5053005;28;20221;-80